createdAt,value
2019-04-01T00:02:02.518Z,3.68
2019-04-01T00:07:11.559Z,3.15
2019-04-01T00:12:20.659Z,3.37
2019-04-01T00:17:29.731Z,3.93
2019-04-01T00:22:38.905Z,2.47
2019-04-01T00:27:47.848Z,2.51
2019-04-01T00:32:57.039Z,2.77
2019-04-01T00:38:06.213Z,3.19
2019-04-01T00:43:15.232Z,3.14
2019-04-01T00:48:24.246Z,2.37
2019-04-01T00:53:33.383Z,2.66
2019-04-01T00:58:42.467Z,5.00
2019-04-01T01:03:55.225Z,3.49
2019-04-01T01:08:54.211Z,3.22
2019-04-01T01:14:03.321Z,4.49
2019-04-01T01:19:12.463Z,3.28
2019-04-01T01:24:21.598Z,2.72
2019-04-01T01:29:30.675Z,2.27
2019-04-01T01:34:39.809Z,2.02
2019-04-01T01:39:48.897Z,2.43
2019-04-01T01:44:58.058Z,2.98
2019-04-01T01:50:07.119Z,2.65
2019-04-01T01:55:16.636Z,3.12
2019-04-01T02:00:25.607Z,2.73
2019-04-01T02:05:34.792Z,3.32
2019-04-01T02:10:43.917Z,3.68
2019-04-01T02:15:53.001Z,2.47
2019-04-01T02:21:02.087Z,2.72
2019-04-01T02:26:11.362Z,2.43
2019-04-01T02:31:20.366Z,2.79
2019-04-01T02:36:29.702Z,1.74
2019-04-01T02:41:38.751Z,2.92
2019-04-01T02:46:47.849Z,2.51
2019-04-01T02:51:56.982Z,1.71
2019-04-01T02:57:06.204Z,2.72
2019-04-01T03:02:15.235Z,3.38
2019-04-01T03:07:24.335Z,3.49
2019-04-01T03:12:33.360Z,2.65
2019-04-01T03:17:42.496Z,3.63
2019-04-01T03:22:51.715Z,2.17
2019-04-01T03:28:00.818Z,2.33
2019-04-01T03:33:09.884Z,2.72
2019-04-01T03:38:19.011Z,3.30
2019-04-01T03:43:28.057Z,3.82
2019-04-01T03:48:37.241Z,2.86
2019-04-01T03:53:46.270Z,2.99
2019-04-01T03:58:55.418Z,2.27
2019-04-01T04:04:04.497Z,3.29
2019-04-01T04:09:13.669Z,2.66
2019-04-01T04:14:23.410Z,3.49
2019-04-01T04:19:32.540Z,3.63
2019-04-01T04:24:41.605Z,1.85
2019-04-01T04:29:50.753Z,2.27
2019-04-01T04:34:59.830Z,4.27
2019-04-01T04:40:08.969Z,2.33
2019-04-01T04:45:18.042Z,2.48
2019-04-01T04:50:27.774Z,2.51
2019-04-01T04:55:36.852Z,3.26
2019-04-01T05:00:46.001Z,3.96
2019-04-01T05:05:55.003Z,4.09
2019-04-01T05:11:04.126Z,5.79
2019-04-01T05:16:13.177Z,3.77
2019-04-01T05:21:22.415Z,3.56
2019-04-01T05:26:31.477Z,2.22
2019-04-01T05:31:40.605Z,3.00
2019-04-01T05:36:49.666Z,2.54
2019-04-01T05:41:58.781Z,4.15
2019-04-01T05:47:07.815Z,2.19
2019-04-01T05:52:16.961Z,2.75
2019-04-01T05:57:26.050Z,3.04
2019-04-01T06:02:35.318Z,2.43
2019-04-01T06:07:44.453Z,3.48
2019-04-01T06:12:53.622Z,3.17
2019-04-01T06:18:02.639Z,2.97
2019-04-01T06:23:15.878Z,4.03
2019-04-01T06:28:14.894Z,3.19
2019-04-01T06:33:24.529Z,2.81
2019-04-01T06:38:33.602Z,3.05
2019-04-01T06:43:42.757Z,3.16
2019-04-01T06:48:51.929Z,4.32
2019-04-01T06:54:01.285Z,2.69
2019-04-01T06:59:10.367Z,4.67
2019-04-01T07:04:19.510Z,3.59
2019-04-01T07:09:28.530Z,4.64
2019-04-01T07:14:37.666Z,4.66
2019-04-01T07:19:46.930Z,4.86
2019-04-01T07:24:56.037Z,4.10
2019-04-01T07:30:05.085Z,3.79
2019-04-01T07:35:14.209Z,3.74
2019-04-01T07:40:23.286Z,3.06
2019-04-01T07:45:32.485Z,4.39
2019-04-01T07:50:41.690Z,4.27
2019-04-01T07:55:50.702Z,4.43
2019-04-01T08:00:59.778Z,5.80
2019-04-01T08:06:09.085Z,4.99
2019-04-01T08:11:18.163Z,6.36
2019-04-01T08:16:27.347Z,3.45
2019-04-01T08:21:36.433Z,4.76
2019-04-01T08:26:45.600Z,4.10
2019-04-01T08:31:54.603Z,4.16
2019-04-01T08:37:04.138Z,3.73
2019-04-01T08:42:13.126Z,3.71
2019-04-01T08:47:22.467Z,3.98
2019-04-01T08:52:31.510Z,3.64
2019-04-01T08:57:40.699Z,4.25
2019-04-01T09:02:49.777Z,4.42
2019-04-01T09:07:58.899Z,4.62
2019-04-01T09:13:08.130Z,4.32
2019-04-01T09:18:17.253Z,4.30
2019-04-01T09:23:26.561Z,4.23
2019-04-01T09:28:35.794Z,5.39
2019-04-01T09:33:44.854Z,3.66
2019-04-01T09:38:54.023Z,5.58
2019-04-01T09:44:03.083Z,5.69
2019-04-01T09:49:12.388Z,6.20
2019-04-01T09:54:21.458Z,5.13
2019-04-01T09:59:30.589Z,6.01
2019-04-01T10:04:55.126Z,4.74
2019-04-01T10:09:44.221Z,5.66
2019-04-01T10:14:53.305Z,7.63
2019-04-01T10:20:02.548Z,8.62
2019-04-01T10:25:11.587Z,6.19
2019-04-01T10:30:20.708Z,8.06
2019-04-01T10:35:29.809Z,7.50
2019-04-01T10:40:39.744Z,7.83
2019-04-01T10:45:48.913Z,6.86
2019-04-01T10:50:58.330Z,6.84
2019-04-01T10:56:07.537Z,5.57
2019-04-01T11:01:20.160Z,6.21
2019-04-01T11:06:19.115Z,6.33
2019-04-01T11:11:28.336Z,6.50
2019-04-01T11:16:37.402Z,7.23
2019-04-01T11:21:46.530Z,7.11
2019-04-01T11:26:55.614Z,6.98
2019-04-01T11:32:04.816Z,6.44
2019-04-01T11:37:13.897Z,6.73
2019-04-01T11:42:23.174Z,9.36
2019-04-01T11:47:31.780Z,7.90
2019-04-01T11:52:41.013Z,6.73
2019-04-01T11:57:50.004Z,6.56
2019-04-01T12:02:59.181Z,6.17
2019-04-01T12:08:08.662Z,8.32
2019-04-01T12:13:17.762Z,9.10
2019-04-01T12:18:27.299Z,7.47
2019-04-01T12:23:36.521Z,8.45
2019-04-01T12:28:45.588Z,6.97
2019-04-01T12:33:54.738Z,9.98
2019-04-01T12:39:03.810Z,8.45
2019-04-01T12:44:13.017Z,9.38
2019-04-01T12:49:56.162Z,6.68
2019-04-01T12:55:05.223Z,7.09
2019-04-01T13:00:14.363Z,9.57
2019-04-01T13:05:23.437Z,8.31
2019-04-01T13:10:33.133Z,7.95
2019-04-01T13:15:42.202Z,7.55
2019-04-01T13:20:51.845Z,8.47
2019-04-01T13:25:59.947Z,8.53
2019-04-01T13:31:09.257Z,11.38
2019-04-01T13:36:18.318Z,9.97
2019-04-01T13:41:41.485Z,12.19
2019-04-01T13:46:36.350Z,10.15
2019-04-01T13:51:45.547Z,9.04
2019-04-01T13:56:54.624Z,8.51
2019-04-01T14:02:03.711Z,6.11
2019-04-01T14:07:12.898Z,7.17
2019-04-01T14:12:22.286Z,6.58
2019-04-01T14:17:31.380Z,12.46
2019-04-01T14:22:43.983Z,10.55
2019-04-01T14:27:49.529Z,12.07
2019-04-01T14:32:58.693Z,12.57
2019-04-01T14:38:07.773Z,12.98
2019-04-01T14:43:16.974Z,13.49
2019-04-01T14:48:26.059Z,12.94
2019-04-01T14:53:35.178Z,12.35
2019-04-01T14:58:44.274Z,11.78
2019-04-01T15:03:53.529Z,10.96
2019-04-01T15:09:02.619Z,10.51
2019-04-01T15:14:11.809Z,6.88
2019-04-01T15:19:20.903Z,7.42
2019-04-01T15:24:30.122Z,5.71
2019-04-01T15:29:39.533Z,7.77
2019-04-01T15:34:48.777Z,5.61
2019-04-01T15:39:57.846Z,7.63
2019-04-01T15:45:07.058Z,5.64
2019-04-01T15:50:27.814Z,4.99
2019-04-01T15:55:24.702Z,3.78
2019-04-01T16:00:33.773Z,3.69
2019-04-01T16:05:42.978Z,3.12
2019-04-01T16:10:52.069Z,2.38
2019-04-01T16:16:01.211Z,2.48
2019-04-01T16:21:10.281Z,2.87
2019-04-01T16:26:19.578Z,3.29
2019-04-01T16:31:28.581Z,3.13
2019-04-01T16:36:37.718Z,4.36
2019-04-01T16:41:50.076Z,2.14
2019-04-01T16:46:55.454Z,2.62
2019-04-01T16:52:04.637Z,2.83
2019-04-01T16:57:14.062Z,3.37
2019-04-01T17:02:23.165Z,2.66
2019-04-01T17:07:32.602Z,3.57
2019-04-01T17:12:41.701Z,3.44
2019-04-01T17:17:50.891Z,3.56
2019-04-01T17:23:00.954Z,3.10
2019-04-01T17:28:10.072Z,4.51
2019-04-01T17:33:09.095Z,4.01
2019-04-01T17:38:18.304Z,3.28
2019-04-01T17:43:27.383Z,4.00
2019-04-01T17:48:36.581Z,4.48
2019-04-01T17:53:45.671Z,3.11
2019-04-01T17:58:54.946Z,4.16
2019-04-01T18:04:04.014Z,5.32
2019-04-01T18:09:13.227Z,5.57
2019-04-01T18:14:22.318Z,5.35
2019-04-01T18:19:31.601Z,6.86
2019-04-01T18:24:40.677Z,5.40
2019-04-01T18:29:49.826Z,6.05
2019-04-01T18:34:58.883Z,5.99
2019-04-01T18:40:08.028Z,5.24
2019-04-01T18:45:17.126Z,5.69
2019-04-01T18:50:26.326Z,5.92
2019-04-01T18:55:35.410Z,4.26
2019-04-01T19:00:44.542Z,3.90
2019-04-01T19:05:53.632Z,3.85
2019-04-01T19:11:02.881Z,4.17
2019-04-01T19:16:12.956Z,5.29
2019-04-01T19:21:20.687Z,11.32
2019-04-01T19:26:29.751Z,6.95
2019-04-01T19:31:38.972Z,3.36
2019-04-01T19:36:48.382Z,3.30
2019-04-01T19:41:57.772Z,3.85
2019-04-01T19:47:07.075Z,4.86
2019-04-01T19:52:15.512Z,6.44
2019-04-01T19:57:24.601Z,6.67
2019-04-01T20:02:34.311Z,4.57
2019-04-01T20:07:44.180Z,4.31
2019-04-01T20:12:51.094Z,2.25
2019-04-01T20:18:00.146Z,1.71
2019-04-01T20:23:09.281Z,3.21
2019-04-01T20:28:18.338Z,6.40
2019-04-01T20:33:27.494Z,2.84
2019-04-01T20:38:36.555Z,2.06
2019-04-01T20:43:45.682Z,1.35
2019-04-01T20:48:54.767Z,4.08
2019-04-01T20:54:03.898Z,2.46
2019-04-01T20:59:12.978Z,3.51
2019-04-01T21:04:22.129Z,2.14
2019-04-01T21:09:31.213Z,2.89
2019-04-01T21:14:40.534Z,2.29
2019-04-01T21:19:49.613Z,3.40
2019-04-01T21:24:58.749Z,2.75
2019-04-01T21:30:07.833Z,2.27
2019-04-01T21:35:16.983Z,2.12
2019-04-01T21:40:26.070Z,1.94
2019-04-01T21:45:35.345Z,2.47
2019-04-01T21:50:44.433Z,2.70
2019-04-01T21:55:54.148Z,1.44
2019-04-01T22:01:02.195Z,2.11
2019-04-01T22:06:11.954Z,3.63
2019-04-01T22:11:19.926Z,1.57
2019-04-01T22:16:40.815Z,1.83
2019-04-01T22:21:29.830Z,2.02
2019-04-01T22:26:39.070Z,1.54
2019-04-01T22:31:48.106Z,1.84
2019-04-01T22:36:57.217Z,5.13
2019-04-01T22:42:06.266Z,7.36
2019-04-01T22:47:16.553Z,6.75
2019-04-01T22:52:23.946Z,4.03
2019-04-01T22:57:33.057Z,6.14
2019-04-01T23:02:42.406Z,9.63
2019-04-01T23:07:50.794Z,3.19
2019-04-01T23:13:00.914Z,5.59
2019-04-01T23:17:59.998Z,6.07
2019-04-01T23:23:09.051Z,6.24
2019-04-01T23:28:18.211Z,3.81
2019-04-01T23:33:27.242Z,3.83
2019-04-01T23:38:36.651Z,4.61
2019-04-01T23:43:44.979Z,5.30
2019-04-01T23:48:54.091Z,3.71
2019-04-01T23:54:03.178Z,6.52
2019-04-01T23:59:12.332Z,4.59
